createdAt,value
2022-08-08T00:00:53.209Z,102285.47
2022-08-08T00:03:20.202Z,102287.09
2022-08-08T00:06:03.787Z,102290.81
2022-08-08T00:08:40.724Z,102286.94
2022-08-08T00:11:25.022Z,102295.00
2022-08-08T00:14:17.225Z,102301.41
2022-08-08T00:16:58.047Z,102300.06
2022-08-08T00:19:32.588Z,102301.66
2022-08-08T00:22:05.762Z,102301.75
2022-08-08T00:24:46.741Z,102301.25
2022-08-08T00:27:20.772Z,102306.38
2022-08-08T00:29:58.357Z,102304.19
2022-08-08T00:32:36.517Z,102302.44
2022-08-08T00:35:43.330Z,102303.06
2022-08-08T00:38:51.733Z,102310.56
2022-08-08T00:42:07.907Z,102310.56
2022-08-08T00:45:27.166Z,102311.00
2022-08-08T00:48:43.746Z,102316.06
2022-08-08T00:52:04.763Z,102309.25
2022-08-08T00:55:10.068Z,102315.28
2022-08-08T00:58:35.361Z,102312.88
2022-08-08T01:01:29.438Z,102310.22
2022-08-08T01:04:44.014Z,102311.59
2022-08-08T01:07:55.298Z,102309.25
2022-08-08T01:10:54.514Z,102319.78
2022-08-08T01:13:46.013Z,102308.59
2022-08-08T01:16:53.455Z,102302.81
2022-08-08T01:22:48.557Z,102308.19
2022-08-08T01:26:13.314Z,102309.91
2022-08-08T01:29:08.762Z,102305.09
2022-08-08T01:32:17.192Z,102311.72
2022-08-08T01:35:14.884Z,102311.84
2022-08-08T01:38:10.430Z,102317.06
2022-08-08T01:40:48.606Z,102317.59
2022-08-08T01:43:38.476Z,102315.38
2022-08-08T01:46:27.119Z,102330.59
2022-08-08T01:49:06.278Z,102331.53
2022-08-08T01:52:12.875Z,102326.13
2022-08-08T01:55:18.975Z,102332.41
2022-08-08T01:58:13.280Z,102330.47
2022-08-08T02:00:57.467Z,102329.44
2022-08-08T02:03:55.003Z,102329.00
2022-08-08T02:06:43.490Z,102320.81
2022-08-08T02:10:01.997Z,102324.31
2022-08-08T02:12:22.760Z,102331.97
2022-08-08T02:14:59.288Z,102322.81
2022-08-08T02:17:43.169Z,102323.34
2022-08-08T02:21:00.913Z,102333.03
2022-08-08T02:23:21.304Z,102323.16
2022-08-08T02:26:00.809Z,102318.16
2022-08-08T02:28:48.410Z,102318.34
2022-08-08T02:31:58.013Z,102323.88
2022-08-08T02:35:08.576Z,102325.16
2022-08-08T02:37:58.516Z,102322.19
2022-08-08T02:40:40.663Z,102331.31
2022-08-08T02:44:37.208Z,102327.28
2022-08-08T02:47:34.735Z,102329.00
2022-08-08T02:50:35.556Z,102327.69
2022-08-08T02:53:53.835Z,102336.44
2022-08-08T02:57:05.079Z,102325.16
2022-08-08T03:00:33.739Z,102339.50
2022-08-08T03:05:00.810Z,102325.03
2022-08-08T03:07:07.322Z,102332.47
2022-08-08T03:10:17.631Z,102330.88
2022-08-08T03:15:56.219Z,102328.44
2022-08-08T03:16:48.382Z,102329.72
2022-08-08T03:19:50.841Z,102329.31
2022-08-08T03:22:38.546Z,102332.84
2022-08-08T03:25:17.961Z,102340.75
2022-08-08T03:27:56.282Z,102342.03
2022-08-08T03:30:26.556Z,102343.72
2022-08-08T03:33:54.928Z,102343.53
2022-08-08T03:36:19.760Z,102348.09
2022-08-08T03:39:14.376Z,102348.84
2022-08-08T03:42:12.931Z,102354.91
2022-08-08T03:44:38.792Z,102364.56
2022-08-08T03:47:20.118Z,102365.72
2022-08-08T03:50:01.196Z,102371.09
2022-08-08T03:52:33.898Z,102370.25
2022-08-08T03:55:19.806Z,102366.84
2022-08-08T03:58:30.986Z,102372.56
2022-08-08T04:01:02.637Z,102377.22
2022-08-08T04:03:59.155Z,102378.06
2022-08-08T04:06:30.545Z,102376.56
2022-08-08T04:09:10.437Z,102376.75
2022-08-08T04:11:58.191Z,102378.56
2022-08-08T04:14:34.437Z,102379.41
2022-08-08T04:17:06.969Z,102389.47
2022-08-08T04:19:51.890Z,102384.28
2022-08-08T04:22:24.244Z,102394.34
2022-08-08T04:25:00.153Z,102391.13
2022-08-08T04:28:03.677Z,102395.09
2022-08-08T04:30:23.142Z,102399.00
2022-08-08T04:32:52.541Z,102396.75
2022-08-08T04:35:22.787Z,102396.94
2022-08-08T04:37:52.799Z,102394.84
2022-08-08T04:40:24.101Z,102406.41
2022-08-08T04:42:57.380Z,102398.50
2022-08-08T04:45:28.081Z,102404.13
2022-08-08T04:48:00.478Z,102409.44
2022-08-08T04:50:37.807Z,102416.34
2022-08-08T04:53:52.210Z,102409.81
2022-08-08T04:55:57.333Z,102413.97
2022-08-08T04:58:25.917Z,102416.53
2022-08-08T05:00:56.304Z,102424.31
2022-08-08T05:04:07.929Z,102415.06
2022-08-08T05:06:25.356Z,102418.44
2022-08-08T05:09:02.251Z,102426.78
2022-08-08T05:11:39.115Z,102427.31
2022-08-08T05:14:08.743Z,102427.13
2022-08-08T05:16:54.288Z,102432.81
2022-08-08T05:20:10.851Z,102432.97
2022-08-08T05:22:18.817Z,102435.91
2022-08-08T05:24:48.773Z,102437.34
2022-08-08T05:27:18.294Z,102443.19
2022-08-08T05:29:51.912Z,102443.53
2022-08-08T05:32:24.802Z,102452.44
2022-08-08T05:35:04.748Z,102444.91
2022-08-08T05:37:54.088Z,102458.06
2022-08-08T05:40:27.867Z,102456.19
2022-08-08T05:43:17.123Z,102458.75
2022-08-08T05:46:03.873Z,102459.16
2022-08-08T05:48:39.201Z,102460.84
2022-08-08T05:51:14.487Z,102464.25
2022-08-08T05:54:24.229Z,102459.31
2022-08-08T05:56:42.576Z,102456.00
2022-08-08T05:59:58.658Z,102465.06
2022-08-08T06:02:34.264Z,102467.06
2022-08-08T06:05:35.587Z,102466.00
2022-08-08T06:08:01.939Z,102459.84
2022-08-08T06:10:34.577Z,102472.22
2022-08-08T06:13:05.005Z,102477.53
2022-08-08T06:15:50.806Z,102478.31
2022-08-08T06:18:24.031Z,102471.72
2022-08-08T06:20:58.137Z,102480.53
2022-08-08T06:23:48.646Z,102475.88
2022-08-08T06:26:38.831Z,102476.28
2022-08-08T06:29:10.790Z,102475.97
2022-08-08T06:32:10.098Z,102479.09
2022-08-08T06:34:42.558Z,102482.59
2022-08-08T06:37:28.893Z,102481.66
2022-08-08T06:40:12.135Z,102479.38
2022-08-08T06:42:53.306Z,102484.44
2022-08-08T06:45:23.399Z,102477.03
2022-08-08T06:48:01.285Z,102474.31
2022-08-08T06:50:33.959Z,102481.91
2022-08-08T06:53:17.066Z,102489.00
2022-08-08T06:56:02.124Z,102482.06
2022-08-08T06:58:33.234Z,102479.91
2022-08-08T07:01:52.346Z,102488.34
2022-08-08T07:04:40.139Z,102483.13
2022-08-08T07:06:51.565Z,102483.31
2022-08-08T07:09:27.125Z,102491.16
2022-08-08T07:12:12.847Z,102483.31
2022-08-08T07:14:54.323Z,102473.75
2022-08-08T07:17:40.101Z,102483.41
2022-08-08T07:20:21.236Z,102480.81
2022-08-08T07:23:04.582Z,102480.50
2022-08-08T07:25:54.151Z,102488.78
2022-08-08T07:28:31.616Z,102486.97
2022-08-08T07:31:01.145Z,102491.88
2022-08-08T07:33:37.967Z,102490.44
2022-08-08T07:36:09.167Z,102489.75
2022-08-08T07:38:39.196Z,102482.00
2022-08-08T07:41:16.786Z,102482.34
2022-08-08T07:43:56.391Z,102475.72
2022-08-08T07:46:30.483Z,102478.81
2022-08-08T07:48:59.487Z,102484.91
2022-08-08T07:51:45.333Z,102490.13
2022-08-08T07:54:27.238Z,102485.16
2022-08-08T07:57:10.379Z,102490.69
2022-08-08T07:59:52.075Z,102488.94
2022-08-08T08:02:35.302Z,102475.38
2022-08-08T08:05:14.946Z,102481.53
2022-08-08T08:07:45.990Z,102486.13
2022-08-08T08:10:30.458Z,102476.81
2022-08-08T08:13:25.657Z,102477.03
2022-08-08T08:16:17.093Z,102484.25
2022-08-08T08:18:55.835Z,102482.13
2022-08-08T08:21:44.505Z,102478.47
2022-08-08T08:24:18.744Z,102472.56
2022-08-08T08:26:52.828Z,102474.34
2022-08-08T08:29:27.739Z,102473.81
2022-08-08T08:31:59.235Z,102471.44
2022-08-08T08:34:34.160Z,102474.50
2022-08-08T08:37:08.303Z,102467.00
2022-08-08T08:40:00.547Z,102469.00
2022-08-08T08:42:31.964Z,102464.78
2022-08-08T08:45:21.349Z,102458.75
2022-08-08T08:47:58.486Z,102459.47
2022-08-08T08:50:34.908Z,102465.34
2022-08-08T08:53:28.201Z,102462.72
2022-08-08T08:56:01.420Z,102458.59
2022-08-08T08:58:35.723Z,102457.28
2022-08-08T09:01:09.573Z,102459.97
2022-08-08T09:03:46.675Z,102453.66
2022-08-08T09:06:26.466Z,102457.94
2022-08-08T09:09:05.505Z,102454.44
2022-08-08T09:11:47.313Z,102445.34
2022-08-08T09:14:28.731Z,102447.16
2022-08-08T09:16:59.116Z,102443.88
2022-08-08T09:21:59.114Z,102441.44
2022-08-08T09:22:19.678Z,102438.13
2022-08-08T09:24:58.464Z,102441.50
2022-08-08T09:27:55.918Z,102433.59
2022-08-08T09:30:22.025Z,102433.00
2022-08-08T09:33:12.776Z,102431.28
2022-08-08T09:35:49.955Z,102417.78
2022-08-08T09:38:33.696Z,102417.19
2022-08-08T09:41:06.509Z,102408.97
2022-08-08T09:44:06.568Z,102408.03
2022-08-08T09:46:45.310Z,102407.84
2022-08-08T09:49:42.939Z,102407.00
2022-08-08T09:52:57.680Z,102404.25
2022-08-08T09:55:17.092Z,102399.88
2022-08-08T09:57:55.773Z,102401.34
2022-08-08T10:00:49.690Z,102395.50
2022-08-08T10:03:20.186Z,102386.63
2022-08-08T10:05:50.361Z,102382.19
2022-08-08T10:08:19.025Z,102375.13
2022-08-08T10:10:51.265Z,102373.59
2022-08-08T10:13:25.986Z,102370.97
2022-08-08T10:16:03.841Z,102375.91
2022-08-08T10:18:34.625Z,102364.00
2022-08-08T10:21:25.361Z,102361.66
2022-08-08T10:23:58.974Z,102379.19
2022-08-08T10:26:58.914Z,102370.59
2022-08-08T10:29:25.030Z,102374.13
2022-08-08T10:32:17.457Z,102369.06
2022-08-08T10:35:00.404Z,102375.72
2022-08-08T10:37:34.614Z,102375.00
2022-08-08T10:40:16.457Z,102372.22
2022-08-08T10:42:46.122Z,102373.63
2022-08-08T10:45:17.083Z,102373.63
2022-08-08T10:47:55.635Z,102370.66
2022-08-08T10:50:32.670Z,102366.38
2022-08-08T10:53:11.733Z,102363.78
2022-08-08T10:55:46.673Z,102359.81
2022-08-08T10:58:16.002Z,102351.88
2022-08-08T11:00:53.593Z,102357.44
2022-08-08T11:04:00.774Z,102366.22
2022-08-08T11:06:34.151Z,102351.47
2022-08-08T11:09:15.404Z,102353.06
2022-08-08T11:12:04.599Z,102355.13
2022-08-08T11:14:54.257Z,102345.09
2022-08-08T11:17:59.386Z,102351.72
2022-08-08T11:20:17.898Z,102359.31
2022-08-08T11:22:52.329Z,102365.41
2022-08-08T11:25:43.690Z,102368.16
2022-08-08T11:28:15.834Z,102366.03
2022-08-08T11:30:52.764Z,102357.00
2022-08-08T11:33:52.058Z,102355.47
2022-08-08T11:36:17.705Z,102353.50
2022-08-08T11:38:55.284Z,102351.94
2022-08-08T11:41:27.761Z,102353.06
2022-08-08T11:44:01.617Z,102355.09
2022-08-08T11:46:32.888Z,102350.28
2022-08-08T11:49:05.320Z,102358.09
2022-08-08T11:51:40.274Z,102354.13
2022-08-08T11:54:32.009Z,102348.06
2022-08-08T11:57:23.826Z,102343.84
2022-08-08T12:00:02.553Z,102345.75
2022-08-08T12:02:34.384Z,102355.22
2022-08-08T12:05:06.741Z,102345.94
2022-08-08T12:07:51.514Z,102350.91
2022-08-08T12:10:23.142Z,102342.88
2022-08-08T12:13:04.048Z,102346.09
2022-08-08T12:15:41.891Z,102341.72
2022-08-08T12:18:20.787Z,102345.41
2022-08-08T12:20:53.042Z,102345.47
2022-08-08T12:23:43.662Z,102337.53
2022-08-08T12:26:35.834Z,102328.94
2022-08-08T12:29:39.965Z,102331.63
2022-08-08T12:32:13.368Z,102326.75
2022-08-08T12:34:49.074Z,102322.72
2022-08-08T12:37:22.311Z,102326.53
2022-08-08T12:40:00.651Z,102322.50
2022-08-08T12:42:47.582Z,102326.66
2022-08-08T12:45:59.450Z,102321.09
2022-08-08T12:48:35.716Z,102310.84
2022-08-08T12:51:00.084Z,102307.19
2022-08-08T12:53:36.493Z,102311.72
2022-08-08T12:56:18.833Z,102310.03
2022-08-08T12:58:51.613Z,102308.34
2022-08-08T13:01:24.339Z,102308.66
2022-08-08T13:03:54.334Z,102306.81
2022-08-08T13:06:23.246Z,102302.78
2022-08-08T13:08:56.472Z,102292.59
2022-08-08T13:11:28.619Z,102299.38
2022-08-08T13:14:16.736Z,102301.41
2022-08-08T13:16:49.104Z,102304.06
2022-08-08T13:19:20.492Z,102299.81
2022-08-08T13:21:55.557Z,102300.41
2022-08-08T13:24:42.051Z,102302.69
2022-08-08T13:27:15.778Z,102310.28
2022-08-08T13:29:53.647Z,102306.78
2022-08-08T13:32:25.563Z,102304.28
2022-08-08T13:34:56.070Z,102303.53
2022-08-08T13:38:04.721Z,102303.97
2022-08-08T13:40:27.215Z,102312.03
2022-08-08T13:42:57.564Z,102303.56
2022-08-08T13:45:27.072Z,102298.94
2022-08-08T13:48:01.516Z,102306.28
2022-08-08T13:50:49.097Z,102299.88
2022-08-08T13:53:34.067Z,102298.84
2022-08-08T13:56:11.051Z,102303.22
2022-08-08T13:58:56.497Z,102306.63
2022-08-08T14:01:41.690Z,102304.38
2022-08-08T14:04:27.598Z,102305.75
2022-08-08T14:07:06.246Z,102300.59
2022-08-08T14:10:04.278Z,102291.56
2022-08-08T14:12:31.462Z,102302.56
2022-08-08T14:15:02.896Z,102296.19
2022-08-08T14:17:57.862Z,102300.66
2022-08-08T14:20:56.170Z,102304.84
2022-08-08T14:24:04.343Z,102296.78
2022-08-08T14:26:21.764Z,102292.50
2022-08-08T14:28:58.293Z,102307.81
2022-08-08T14:32:05.833Z,102299.00
2022-08-08T14:34:22.931Z,102300.66
2022-08-08T14:36:54.736Z,102291.91
2022-08-08T14:39:24.903Z,102289.03
2022-08-08T14:42:07.591Z,102288.78
2022-08-08T14:44:39.425Z,102286.84
2022-08-08T14:47:17.170Z,102293.50
2022-08-08T14:50:06.366Z,102291.09
2022-08-08T14:52:46.621Z,102292.09
2022-08-08T14:55:16.381Z,102293.59
2022-08-08T14:58:05.851Z,102298.59
2022-08-08T15:00:40.036Z,102293.69
2022-08-08T15:03:16.068Z,102295.03
2022-08-08T15:05:54.200Z,102293.00
2022-08-08T15:08:34.433Z,102284.91
2022-08-08T15:11:06.556Z,102293.63
2022-08-08T15:13:41.012Z,102301.47
2022-08-08T15:16:24.097Z,102294.06
2022-08-08T15:18:52.945Z,102297.59
2022-08-08T15:21:21.607Z,102284.00
2022-08-08T15:23:52.104Z,102280.13
2022-08-08T15:26:25.566Z,102286.69
2022-08-08T15:28:54.592Z,102294.59
2022-08-08T15:31:55.583Z,102287.72
2022-08-08T15:34:29.130Z,102281.31
2022-08-08T15:37:03.304Z,102284.88
2022-08-08T15:39:38.185Z,102282.66
2022-08-08T15:42:13.456Z,102277.75
2022-08-08T15:44:53.197Z,102278.50
2022-08-08T15:47:22.734Z,102288.72
2022-08-08T15:49:53.360Z,102284.13
2022-08-08T15:52:25.076Z,102271.28
2022-08-08T15:54:56.236Z,102268.06
2022-08-08T15:57:24.688Z,102277.41
2022-08-08T16:00:05.177Z,102284.75
2022-08-08T16:02:50.783Z,102279.13
2022-08-08T16:05:23.813Z,102275.72
2022-08-08T16:07:54.537Z,102274.88
2022-08-08T16:13:02.562Z,102275.16
2022-08-08T16:13:30.991Z,102272.53
2022-08-08T16:16:12.881Z,102276.53
2022-08-08T16:18:56.723Z,102272.97
2022-08-08T16:21:33.953Z,102273.59
2022-08-08T16:24:04.357Z,102276.31
2022-08-08T16:26:37.349Z,102271.72
2022-08-08T16:29:15.564Z,102278.41
2022-08-08T16:31:48.872Z,102274.31
2022-08-08T16:34:21.921Z,102281.38
2022-08-08T16:36:54.646Z,102282.06
2022-08-08T16:39:59.478Z,102285.94
2022-08-08T16:42:13.919Z,102279.91
2022-08-08T16:44:54.370Z,102285.56
2022-08-08T16:47:40.069Z,102281.41
2022-08-08T16:50:15.375Z,102279.75
2022-08-08T16:55:04.699Z,102282.28
2022-08-08T16:55:55.988Z,102292.63
2022-08-08T16:58:32.673Z,102297.41
2022-08-08T17:01:09.229Z,102306.09
2022-08-08T17:04:00.519Z,102298.69
2022-08-08T17:06:43.694Z,102308.16
2022-08-08T17:09:15.014Z,102301.28
2022-08-08T17:11:49.230Z,102298.34
2022-08-08T17:14:34.307Z,102309.31
2022-08-08T17:17:04.842Z,102301.06
2022-08-08T17:19:40.832Z,102309.41
2022-08-08T17:22:10.987Z,102310.72
2022-08-08T17:24:41.473Z,102317.84
2022-08-08T17:27:10.545Z,102303.34
2022-08-08T17:29:43.674Z,102303.13
2022-08-08T17:32:28.741Z,102304.63
2022-08-08T17:35:55.799Z,102309.75
2022-08-08T17:37:53.359Z,102315.50
2022-08-08T17:40:22.162Z,102311.63
2022-08-08T17:42:51.990Z,102313.59
2022-08-08T17:45:24.134Z,102309.50
2022-08-08T17:47:54.725Z,102314.53
2022-08-08T17:50:23.878Z,102315.69
2022-08-08T17:52:54.023Z,102312.91
2022-08-08T17:56:06.149Z,102303.47
2022-08-08T17:58:16.454Z,102303.94
2022-08-08T18:00:56.119Z,102316.75
2022-08-08T18:03:25.565Z,102318.22
2022-08-08T18:05:54.152Z,102315.00
2022-08-08T18:08:25.389Z,102307.97
2022-08-08T18:11:15.145Z,102307.72
2022-08-08T18:13:46.018Z,102319.28
2022-08-08T18:16:22.813Z,102327.41
2022-08-08T18:18:55.939Z,102329.22
2022-08-08T18:22:00.301Z,102333.75
2022-08-08T18:24:18.874Z,102349.28
2022-08-08T18:26:53.746Z,102346.81
2022-08-08T18:29:33.329Z,102351.44
2022-08-08T18:32:06.626Z,102352.31
2022-08-08T18:34:36.300Z,102355.88
2022-08-08T18:37:07.957Z,102362.63
2022-08-08T18:39:41.888Z,102354.94
2022-08-08T18:42:16.667Z,102360.53
2022-08-08T18:44:55.483Z,102361.69
2022-08-08T18:47:28.021Z,102367.28
2022-08-08T18:50:00.035Z,102368.38
2022-08-08T18:52:33.664Z,102367.03
2022-08-08T18:55:10.167Z,102367.00
2022-08-08T18:57:43.211Z,102370.94
2022-08-08T19:00:15.681Z,102372.94
2022-08-08T19:02:55.854Z,102382.63
2022-08-08T19:05:31.950Z,102381.47
2022-08-08T19:08:25.899Z,102376.19
2022-08-08T19:10:59.717Z,102383.94
2022-08-08T19:13:53.757Z,102378.50
2022-08-08T19:16:20.340Z,102382.63
2022-08-08T19:19:02.446Z,102383.94
2022-08-08T19:21:32.930Z,102390.75
2022-08-08T19:24:05.645Z,102387.00
2022-08-08T19:26:37.426Z,102390.81
2022-08-08T19:29:06.829Z,102394.69
2022-08-08T19:31:36.140Z,102393.41
2022-08-08T19:34:30.047Z,102399.53
2022-08-08T19:36:59.230Z,102397.78
2022-08-08T19:39:35.183Z,102412.91
2022-08-08T19:42:04.892Z,102405.41
2022-08-08T19:44:42.822Z,102413.06
2022-08-08T19:47:15.012Z,102414.31
2022-08-08T19:49:59.993Z,102419.56
2022-08-08T19:52:34.822Z,102424.59
2022-08-08T19:55:09.416Z,102425.72
2022-08-08T19:57:41.250Z,102438.13
2022-08-08T20:00:29.222Z,102440.50
2022-08-08T20:02:58.787Z,102435.84
2022-08-08T20:06:15.203Z,102436.13
2022-08-08T20:08:39.459Z,102445.44
2022-08-08T20:11:05.725Z,102453.59
2022-08-08T20:14:32.284Z,102449.19
2022-08-08T20:16:22.888Z,102463.47
2022-08-08T20:18:58.570Z,102469.53
2022-08-08T20:21:32.045Z,102468.72
2022-08-08T20:24:07.703Z,102465.88
2022-08-08T20:26:38.254Z,102471.53
2022-08-08T20:29:07.137Z,102475.75
2022-08-08T20:32:07.389Z,102472.22
2022-08-08T20:34:29.278Z,102471.66
2022-08-08T20:37:03.155Z,102471.31
2022-08-08T20:39:51.687Z,102470.28
2022-08-08T20:42:54.863Z,102473.44
2022-08-08T20:45:13.585Z,102477.22
2022-08-08T20:48:02.539Z,102474.94
2022-08-08T20:50:34.430Z,102475.84
2022-08-08T20:53:10.899Z,102474.63
2022-08-08T20:55:51.208Z,102471.69
2022-08-08T20:58:23.367Z,102479.66
2022-08-08T21:00:52.085Z,102473.09
2022-08-08T21:03:20.675Z,102471.84
2022-08-08T21:05:59.491Z,102471.94
2022-08-08T21:08:36.996Z,102475.53
2022-08-08T21:11:17.965Z,102474.63
2022-08-08T21:14:07.694Z,102480.44
2022-08-08T21:16:36.577Z,102474.69
2022-08-08T21:19:05.086Z,102476.66
2022-08-08T21:21:42.682Z,102470.63
2022-08-08T21:24:26.922Z,102468.34
2022-08-08T21:27:00.288Z,102482.31
2022-08-08T21:30:04.591Z,102482.66
2022-08-08T21:32:25.728Z,102482.13
2022-08-08T21:34:56.597Z,102494.00
2022-08-08T21:37:53.963Z,102491.94
2022-08-08T21:40:30.864Z,102494.47
2022-08-08T21:43:00.369Z,102501.34
2022-08-08T21:48:00.557Z,102498.47
2022-08-08T21:48:22.039Z,102493.59
2022-08-08T21:50:52.738Z,102505.28
2022-08-08T21:54:32.313Z,102512.97
2022-08-08T21:56:30.380Z,102506.09
2022-08-08T21:59:00.556Z,102502.72
2022-08-08T22:01:41.133Z,102507.78
2022-08-08T22:04:11.585Z,102509.78
2022-08-08T22:06:40.954Z,102500.69
2022-08-08T22:09:10.593Z,102518.22
2022-08-08T22:12:02.699Z,102514.19
2022-08-08T22:14:29.399Z,102518.22
2022-08-08T22:17:01.029Z,102506.78
2022-08-08T22:20:12.886Z,102517.88
2022-08-08T22:22:44.794Z,102507.19
2022-08-08T22:25:26.900Z,102502.44
2022-08-08T22:29:14.174Z,102504.28
2022-08-08T22:31:08.495Z,102498.69
2022-08-08T22:34:13.911Z,102496.78
2022-08-08T22:36:32.352Z,102492.38
2022-08-08T22:39:06.639Z,102501.53
2022-08-08T22:41:35.671Z,102497.78
2022-08-08T22:44:09.694Z,102514.09
2022-08-08T22:46:39.827Z,102514.81
2022-08-08T22:49:09.970Z,102526.38
2022-08-08T22:51:42.548Z,102524.31
2022-08-08T22:54:30.809Z,102520.41
2022-08-08T22:57:01.922Z,102524.16
2022-08-08T22:59:59.149Z,102523.78
2022-08-08T23:02:30.166Z,102515.25
2022-08-08T23:05:02.186Z,102511.47
2022-08-08T23:07:51.464Z,102517.44
2022-08-08T23:10:25.242Z,102521.09
2022-08-08T23:12:55.232Z,102516.38
2022-08-08T23:16:40.983Z,102513.69
2022-08-08T23:18:17.269Z,102523.88
2022-08-08T23:20:54.654Z,102514.41
2022-08-08T23:23:23.818Z,102520.41
2022-08-08T23:25:52.712Z,102529.41
2022-08-08T23:28:24.940Z,102536.44
2022-08-08T23:30:55.381Z,102539.50
2022-08-08T23:34:16.431Z,102533.06
2022-08-08T23:36:12.491Z,102544.63
2022-08-08T23:38:44.067Z,102544.75
2022-08-08T23:41:23.207Z,102534.75
2022-08-08T23:43:56.835Z,102537.19
2022-08-08T23:49:00.412Z,102539.53
2022-08-08T23:49:18.999Z,102547.41
2022-08-08T23:52:04.338Z,102560.91
2022-08-08T23:54:41.578Z,102545.56
2022-08-08T23:57:25.128Z,102552.53
2022-08-08T23:59:55.597Z,102542.41
